createdAt,value
2023-02-16T00:00:22.489Z,1012.38
2023-02-16T00:01:22.694Z,1012.41
2023-02-16T00:02:22.497Z,1012.39
2023-02-16T00:03:22.935Z,1012.40
2023-02-16T00:04:22.515Z,1012.42
2023-02-16T00:05:22.389Z,1012.42
2023-02-16T00:06:22.419Z,1012.44
2023-02-16T00:07:23.438Z,1012.41
2023-02-16T00:08:22.570Z,1012.45
2023-02-16T00:09:22.330Z,1012.46
2023-02-16T00:10:22.429Z,1012.50
2023-02-16T00:11:22.498Z,1012.47
2023-02-16T00:12:22.393Z,1012.51
2023-02-16T00:13:22.552Z,1012.51
2023-02-16T00:14:23.421Z,1012.50
2023-02-16T00:15:22.319Z,1012.52
2023-02-16T00:16:22.560Z,1012.53
2023-02-16T00:17:22.229Z,1012.50
2023-02-16T00:18:22.252Z,1012.47
2023-02-16T00:19:22.367Z,1012.50
2023-02-16T00:20:22.366Z,1012.52
2023-02-16T00:21:22.362Z,1012.54
2023-02-16T00:22:22.260Z,1012.56
2023-02-16T00:23:22.148Z,1012.55
2023-02-16T00:24:22.250Z,1012.52
2023-02-16T00:25:22.330Z,1012.46
2023-02-16T00:26:22.131Z,1012.49
2023-02-16T00:27:22.215Z,1012.43
2023-02-16T00:28:22.099Z,1012.38
2023-02-16T00:29:22.218Z,1012.36
2023-02-16T00:30:22.277Z,1012.38
2023-02-16T00:31:22.201Z,1012.37
2023-02-16T00:32:22.185Z,1012.38
2023-02-16T00:33:22.131Z,1012.34
2023-02-16T00:34:22.035Z,1012.38
2023-02-16T00:35:22.164Z,1012.38
2023-02-16T00:36:22.055Z,1012.35
2023-02-16T00:37:21.985Z,1012.34
2023-02-16T00:38:21.961Z,1012.36
2023-02-16T00:39:21.983Z,1012.28
2023-02-16T00:40:21.934Z,1012.26
2023-02-16T00:41:21.926Z,1012.26
2023-02-16T00:42:21.910Z,1012.28
2023-02-16T00:43:21.919Z,1012.29
2023-02-16T00:44:21.883Z,1012.32
2023-02-16T00:45:21.912Z,1012.33
2023-02-16T00:46:21.942Z,1012.32
2023-02-16T00:47:21.968Z,1012.32
2023-02-16T00:48:21.874Z,1012.35
2023-02-16T00:49:21.822Z,1012.30
2023-02-16T00:50:21.812Z,1012.30
2023-02-16T00:51:26.183Z,1012.24
2023-02-16T00:52:21.791Z,1012.25
2023-02-16T00:53:21.762Z,1012.25
2023-02-16T00:54:21.733Z,1012.26
2023-02-16T00:55:21.752Z,1012.25
2023-02-16T00:56:21.803Z,1012.24
2023-02-16T00:57:21.704Z,1012.28
2023-02-16T00:58:21.753Z,1012.25
2023-02-16T00:59:21.683Z,1012.32
2023-02-16T01:00:21.673Z,1012.29
2023-02-16T01:01:21.657Z,1012.29
2023-02-16T01:02:21.643Z,1012.30
2023-02-16T01:03:21.622Z,1012.32
2023-02-16T01:04:21.629Z,1012.33
2023-02-16T01:05:21.607Z,1012.29
2023-02-16T01:06:21.572Z,1012.27
2023-02-16T01:07:21.560Z,1012.28
2023-02-16T01:08:21.559Z,1012.25
2023-02-16T01:09:21.531Z,1012.26
2023-02-16T01:10:21.543Z,1012.29
2023-02-16T01:11:21.519Z,1012.34
2023-02-16T01:12:21.498Z,1012.36
2023-02-16T01:13:21.489Z,1012.32
2023-02-16T01:14:21.472Z,1012.32
2023-02-16T01:15:21.470Z,1012.29
2023-02-16T01:16:21.468Z,1012.32
2023-02-16T01:17:21.435Z,1012.28
2023-02-16T01:18:21.431Z,1012.28
2023-02-16T01:19:21.401Z,1012.28
2023-02-16T01:20:21.420Z,1012.27
2023-02-16T01:21:21.387Z,1012.23
2023-02-16T01:22:21.368Z,1012.22
2023-02-16T01:23:21.349Z,1012.24
2023-02-16T01:24:21.355Z,1012.24
2023-02-16T01:25:21.328Z,1012.24
2023-02-16T01:26:21.317Z,1012.28
2023-02-16T01:27:21.307Z,1012.31
2023-02-16T01:28:21.279Z,1012.29
2023-02-16T01:29:21.282Z,1012.32
2023-02-16T01:30:21.396Z,1012.27
2023-02-16T01:31:21.357Z,1012.27
2023-02-16T01:32:21.423Z,1012.27
2023-02-16T01:33:21.233Z,1012.28
2023-02-16T01:34:21.206Z,1012.31
2023-02-16T01:35:21.201Z,1012.34
2023-02-16T01:36:21.226Z,1012.31
2023-02-16T01:37:21.175Z,1012.27
2023-02-16T01:38:21.203Z,1012.23
2023-02-16T01:39:21.164Z,1012.16
2023-02-16T01:40:21.138Z,1012.15
2023-02-16T01:41:21.128Z,1012.15
2023-02-16T01:42:21.106Z,1012.19
2023-02-16T01:43:21.086Z,1012.20
2023-02-16T01:44:21.079Z,1012.18
2023-02-16T01:45:21.058Z,1012.17
2023-02-16T01:46:21.143Z,1012.18
2023-02-16T01:47:21.040Z,1012.18
2023-02-16T01:48:21.027Z,1012.15
2023-02-16T01:49:21.007Z,1012.13
2023-02-16T01:50:20.989Z,1012.15
2023-02-16T01:51:20.998Z,1012.15
2023-02-16T01:52:21.009Z,1012.10
2023-02-16T01:53:20.966Z,1012.10
2023-02-16T01:54:20.948Z,1012.10
2023-02-16T01:55:20.942Z,1012.08
2023-02-16T01:56:20.928Z,1012.04
2023-02-16T01:57:20.910Z,1012.06
2023-02-16T01:58:20.905Z,1012.07
2023-02-16T01:59:20.925Z,1012.12
2023-02-16T02:00:20.877Z,1012.12
2023-02-16T02:01:20.985Z,1012.10
2023-02-16T02:02:20.853Z,1012.07
2023-02-16T02:03:20.825Z,1012.05
2023-02-16T02:04:20.825Z,1011.98
2023-02-16T02:05:20.797Z,1011.96
2023-02-16T02:06:20.808Z,1011.96
2023-02-16T02:07:20.768Z,1011.97
2023-02-16T02:08:20.760Z,1012.03
2023-02-16T02:09:20.747Z,1012.02
2023-02-16T02:10:20.736Z,1012.04
2023-02-16T02:11:20.746Z,1012.02
2023-02-16T02:12:20.707Z,1012.04
2023-02-16T02:13:20.687Z,1011.99
2023-02-16T02:14:20.676Z,1011.96
2023-02-16T02:15:20.666Z,1011.96
2023-02-16T02:16:20.822Z,1011.98
2023-02-16T02:17:20.639Z,1011.96
2023-02-16T02:18:20.626Z,1011.91
2023-02-16T02:19:20.617Z,1011.97
2023-02-16T02:20:20.600Z,1011.99
2023-02-16T02:21:20.587Z,1012.00
2023-02-16T02:22:20.597Z,1011.98
2023-02-16T02:23:20.555Z,1011.99
2023-02-16T02:24:20.557Z,1011.93
2023-02-16T02:25:20.538Z,1011.92
2023-02-16T02:26:20.518Z,1011.93
2023-02-16T02:27:20.526Z,1011.95
2023-02-16T02:28:20.525Z,1011.97
2023-02-16T02:29:20.475Z,1011.94
2023-02-16T02:30:20.597Z,1011.96
2023-02-16T02:31:20.598Z,1011.95
2023-02-16T02:32:20.506Z,1011.90
2023-02-16T02:33:20.430Z,1011.91
2023-02-16T02:34:20.415Z,1011.89
2023-02-16T02:35:20.416Z,1011.93
2023-02-16T02:36:20.408Z,1011.93
2023-02-16T02:37:20.399Z,1011.93
2023-02-16T02:38:20.357Z,1011.91
2023-02-16T02:39:20.356Z,1011.91
2023-02-16T02:40:20.342Z,1011.90
2023-02-16T02:41:20.335Z,1011.88
2023-02-16T02:42:20.325Z,1011.84
2023-02-16T02:43:20.294Z,1011.83
2023-02-16T02:44:20.311Z,1011.77
2023-02-16T02:45:20.268Z,1011.81
2023-02-16T02:46:20.383Z,1011.83
2023-02-16T02:47:20.271Z,1011.80
2023-02-16T02:48:20.230Z,1011.82
2023-02-16T02:49:20.216Z,1011.88
2023-02-16T02:50:20.206Z,1011.83
2023-02-16T02:51:20.205Z,1011.82
2023-02-16T02:52:20.227Z,1011.80
2023-02-16T02:53:20.167Z,1011.78
2023-02-16T02:54:20.168Z,1011.75
2023-02-16T02:55:20.144Z,1011.77
2023-02-16T02:56:20.142Z,1011.77
2023-02-16T02:57:20.138Z,1011.84
2023-02-16T02:58:20.095Z,1011.81
2023-02-16T02:59:20.093Z,1011.83
2023-02-16T03:00:20.075Z,1011.85
2023-02-16T03:01:20.116Z,1011.76
2023-02-16T03:02:20.188Z,1011.82
2023-02-16T03:03:20.046Z,1011.76
2023-02-16T03:04:20.020Z,1011.72
2023-02-16T03:05:20.007Z,1011.73
2023-02-16T03:06:20.001Z,1011.75
2023-02-16T03:07:19.985Z,1011.84
2023-02-16T03:08:19.975Z,1011.81
2023-02-16T03:09:19.960Z,1011.82
2023-02-16T03:10:19.935Z,1011.78
2023-02-16T03:11:19.935Z,1011.77
2023-02-16T03:12:19.925Z,1011.71
2023-02-16T03:13:19.944Z,1011.73
2023-02-16T03:14:19.907Z,1011.74
2023-02-16T03:15:19.886Z,1011.73
2023-02-16T03:16:19.908Z,1011.77
2023-02-16T03:17:19.861Z,1011.79
2023-02-16T03:18:19.854Z,1011.73
2023-02-16T03:19:19.834Z,1011.72
2023-02-16T03:20:19.815Z,1011.79
2023-02-16T03:21:19.801Z,1011.75
2023-02-16T03:22:19.784Z,1011.76
2023-02-16T03:23:19.796Z,1011.78
2023-02-16T03:24:19.757Z,1011.76
2023-02-16T03:25:19.744Z,1011.77
2023-02-16T03:26:19.722Z,1011.82
2023-02-16T03:27:19.719Z,1011.85
2023-02-16T03:28:19.721Z,1011.85
2023-02-16T03:29:19.691Z,1011.85
2023-02-16T03:30:19.861Z,1011.83
2023-02-16T03:31:19.777Z,1011.86
2023-02-16T03:32:19.648Z,1011.81
2023-02-16T03:33:19.662Z,1011.82
2023-02-16T03:34:19.621Z,1011.81
2023-02-16T03:35:19.621Z,1011.79
2023-02-16T03:36:19.590Z,1011.80
2023-02-16T03:37:19.590Z,1011.72
2023-02-16T03:38:19.594Z,1011.69
2023-02-16T03:39:19.578Z,1011.72
2023-02-16T03:40:19.555Z,1011.72
2023-02-16T03:41:19.551Z,1011.74
2023-02-16T03:42:19.528Z,1011.72
2023-02-16T03:43:19.530Z,1011.76
2023-02-16T03:44:19.489Z,1011.83
2023-02-16T03:45:19.489Z,1011.81
2023-02-16T03:46:19.545Z,1011.84
2023-02-16T03:47:19.459Z,1011.87
2023-02-16T03:48:19.459Z,1011.83
2023-02-16T03:49:19.440Z,1011.77
2023-02-16T03:50:19.418Z,1011.73
2023-02-16T03:51:19.408Z,1011.76
2023-02-16T03:52:19.380Z,1011.75
2023-02-16T03:53:19.406Z,1011.72
2023-02-16T03:54:19.363Z,1011.74
2023-02-16T03:55:19.359Z,1011.70
2023-02-16T03:56:19.347Z,1011.75
2023-02-16T03:57:19.331Z,1011.82
2023-02-16T03:58:19.323Z,1011.87
2023-02-16T03:59:26.636Z,1011.82
2023-02-16T04:00:19.285Z,1011.80
2023-02-16T04:01:19.282Z,1011.78
2023-02-16T04:02:19.323Z,1011.78
2023-02-16T04:03:19.263Z,1011.78
2023-02-16T04:04:19.328Z,1011.79
2023-02-16T04:05:19.229Z,1011.75
2023-02-16T04:06:19.203Z,1011.71
2023-02-16T04:07:19.191Z,1011.78
2023-02-16T04:08:19.183Z,1011.81
2023-02-16T04:09:19.194Z,1011.82
2023-02-16T04:10:19.154Z,1011.76
2023-02-16T04:11:19.155Z,1011.72
2023-02-16T04:12:19.122Z,1011.73
2023-02-16T04:13:19.125Z,1011.75
2023-02-16T04:14:19.123Z,1011.73
2023-02-16T04:15:19.094Z,1011.73
2023-02-16T04:16:19.124Z,1011.71
2023-02-16T04:17:19.084Z,1011.73
2023-02-16T04:18:19.059Z,1011.74
2023-02-16T04:19:19.094Z,1011.68
2023-02-16T04:22:40.336Z,1011.71
2023-02-16T04:23:40.397Z,1011.73
2023-02-16T04:24:40.318Z,1011.72
2023-02-16T04:25:40.290Z,1011.77
2023-02-16T04:26:40.289Z,1011.84
2023-02-16T04:27:40.269Z,1011.81
2023-02-16T04:28:40.245Z,1011.83
2023-02-16T04:29:40.248Z,1011.89
2023-02-16T04:30:40.406Z,1011.90
2023-02-16T04:31:40.338Z,1011.91
2023-02-16T04:32:40.187Z,1011.80
2023-02-16T04:33:40.186Z,1011.79
2023-02-16T04:34:40.200Z,1011.77
2023-02-16T04:35:40.146Z,1011.79
2023-02-16T04:36:40.146Z,1011.79
2023-02-16T04:37:40.138Z,1011.76
2023-02-16T04:38:40.136Z,1011.79
2023-02-16T04:39:40.133Z,1011.82
2023-02-16T04:40:40.102Z,1011.84
2023-02-16T04:41:40.085Z,1011.86
2023-02-16T04:42:40.062Z,1011.86
2023-02-16T04:43:40.052Z,1011.81
2023-02-16T04:44:40.053Z,1011.82
2023-02-16T04:45:40.045Z,1011.79
2023-02-16T04:46:40.028Z,1011.82
2023-02-16T04:47:40.002Z,1011.84
2023-02-16T04:48:39.990Z,1011.87
2023-02-16T04:49:40.014Z,1011.89
2023-02-16T04:50:39.982Z,1011.87
2023-02-16T04:51:39.946Z,1011.86
2023-02-16T04:52:39.942Z,1011.83
2023-02-16T04:53:39.937Z,1011.76
2023-02-16T04:54:39.921Z,1011.75
2023-02-16T04:55:39.938Z,1011.77
2023-02-16T04:56:39.892Z,1011.77
2023-02-16T04:57:39.888Z,1011.78
2023-02-16T04:58:39.861Z,1011.67
2023-02-16T04:59:39.852Z,1011.65
2023-02-16T05:00:39.852Z,1011.69
2023-02-16T05:01:39.850Z,1011.77
2023-02-16T05:02:39.813Z,1011.84
2023-02-16T05:03:39.793Z,1011.87
2023-02-16T05:04:39.806Z,1011.84
2023-02-16T05:05:39.791Z,1011.82
2023-02-16T05:06:39.763Z,1011.82
2023-02-16T05:07:39.739Z,1011.82
2023-02-16T05:08:39.734Z,1011.78
2023-02-16T05:09:39.718Z,1011.77
2023-02-16T05:10:39.725Z,1011.71
2023-02-16T05:11:39.692Z,1011.72
2023-02-16T05:12:39.683Z,1011.73
2023-02-16T05:13:41.767Z,1011.75
2023-02-16T05:14:39.660Z,1011.75
2023-02-16T05:15:39.694Z,1011.76
2023-02-16T05:16:39.632Z,1011.77
2023-02-16T05:17:39.610Z,1011.80
2023-02-16T05:18:39.607Z,1011.77
2023-02-16T05:19:39.589Z,1011.81
2023-02-16T05:20:39.605Z,1011.80
2023-02-16T05:21:39.559Z,1011.82
2023-02-16T05:22:39.552Z,1011.82
2023-02-16T05:23:39.550Z,1011.80
2023-02-16T05:24:39.540Z,1011.82
2023-02-16T05:25:39.529Z,1011.84
2023-02-16T05:26:39.500Z,1011.83
2023-02-16T05:27:39.490Z,1011.86
2023-02-16T05:28:39.470Z,1011.88
2023-02-16T05:29:39.461Z,1011.87
2023-02-16T05:30:39.525Z,1011.87
2023-02-16T05:31:39.522Z,1011.86
2023-02-16T05:32:39.423Z,1011.90
2023-02-16T05:33:39.410Z,1011.88
2023-02-16T05:34:39.411Z,1011.86
2023-02-16T05:35:39.398Z,1011.83
2023-02-16T05:36:39.380Z,1011.79
2023-02-16T05:37:42.348Z,1011.87
2023-02-16T05:38:39.362Z,1011.87
2023-02-16T05:39:39.333Z,1011.87
2023-02-16T05:40:39.344Z,1011.87
2023-02-16T05:41:39.310Z,1011.90
2023-02-16T05:42:39.294Z,1011.89
2023-02-16T05:43:39.290Z,1011.96
2023-02-16T05:44:39.289Z,1011.93
2023-02-16T05:45:39.255Z,1012.00
2023-02-16T05:46:39.334Z,1011.96
2023-02-16T05:47:39.233Z,1012.00
2023-02-16T05:48:39.232Z,1011.96
2023-02-16T05:49:39.209Z,1011.93
2023-02-16T05:50:39.195Z,1011.95
2023-02-16T05:51:39.196Z,1011.92
2023-02-16T05:52:39.173Z,1011.96
2023-02-16T05:53:39.154Z,1011.93
2023-02-16T05:54:39.154Z,1011.92
2023-02-16T05:55:39.126Z,1011.95
2023-02-16T05:56:39.135Z,1011.99
2023-02-16T05:57:39.109Z,1011.95
2023-02-16T05:58:39.095Z,1012.02
2023-02-16T05:59:39.077Z,1011.95
2023-02-16T06:00:39.066Z,1011.99
2023-02-16T06:01:39.075Z,1011.98
2023-02-16T06:02:39.075Z,1012.02
2023-02-16T06:03:39.030Z,1012.06
2023-02-16T06:04:39.034Z,1012.04
2023-02-16T06:05:39.015Z,1012.06
2023-02-16T06:06:39.018Z,1012.13
2023-02-16T06:07:38.984Z,1012.10
2023-02-16T06:08:39.022Z,1012.09
2023-02-16T06:09:38.989Z,1012.14
2023-02-16T06:10:38.937Z,1012.07
2023-02-16T06:11:38.953Z,1012.08
2023-02-16T06:12:38.916Z,1012.03
2023-02-16T06:13:38.914Z,1012.06
2023-02-16T06:14:38.925Z,1012.10
2023-02-16T06:15:38.929Z,1012.08
2023-02-16T06:16:38.896Z,1012.12
2023-02-16T06:17:38.846Z,1012.11
2023-02-16T06:18:38.865Z,1012.11
2023-02-16T06:19:38.888Z,1012.08
2023-02-16T06:20:38.847Z,1012.05
2023-02-16T06:21:38.850Z,1012.06
2023-02-16T06:22:38.788Z,1012.05
2023-02-16T06:23:38.776Z,1012.04
2023-02-16T06:24:39.918Z,1012.05
2023-02-16T06:25:38.745Z,1012.08
2023-02-16T06:26:38.743Z,1012.12
2023-02-16T06:27:38.737Z,1012.12
2023-02-16T06:28:38.705Z,1012.07
2023-02-16T06:29:38.719Z,1012.08
2023-02-16T06:30:38.693Z,1012.09
2023-02-16T06:31:38.829Z,1012.09
2023-02-16T06:32:38.730Z,1012.11
2023-02-16T06:33:38.654Z,1012.09
2023-02-16T06:34:38.654Z,1012.09
2023-02-16T06:35:38.613Z,1012.09
2023-02-16T06:36:41.259Z,1012.08
2023-02-16T06:37:38.602Z,1012.09
2023-02-16T06:38:38.590Z,1012.12
2023-02-16T06:39:38.571Z,1012.09
2023-02-16T06:40:38.556Z,1012.13
2023-02-16T06:41:38.536Z,1012.10
2023-02-16T06:42:38.567Z,1012.09
2023-02-16T06:43:38.512Z,1012.06
2023-02-16T06:44:38.501Z,1012.06
2023-02-16T06:45:38.483Z,1012.09
2023-02-16T06:46:38.514Z,1012.14
2023-02-16T06:47:38.482Z,1012.17
2023-02-16T06:48:38.460Z,1012.14
2023-02-16T06:49:38.432Z,1012.15
2023-02-16T06:50:38.430Z,1012.11
2023-02-16T06:51:38.392Z,1012.12
2023-02-16T06:52:38.411Z,1012.09
2023-02-16T06:53:38.383Z,1012.10
2023-02-16T06:54:38.441Z,1012.07
2023-02-16T06:55:38.351Z,1012.10
2023-02-16T06:56:38.352Z,1012.08
2023-02-16T06:57:38.363Z,1012.13
2023-02-16T06:58:38.321Z,1012.08
2023-02-16T06:59:38.301Z,1012.08
2023-02-16T07:00:38.332Z,1012.11
2023-02-16T07:01:38.316Z,1012.08
2023-02-16T07:02:38.308Z,1012.11
2023-02-16T07:03:38.353Z,1012.07
2023-02-16T07:04:38.273Z,1012.10
2023-02-16T07:05:38.268Z,1012.10
2023-02-16T07:06:38.220Z,1012.11
2023-02-16T07:07:38.209Z,1012.12
2023-02-16T07:08:38.222Z,1012.10
2023-02-16T07:09:38.181Z,1012.11
2023-02-16T07:10:49.482Z,1012.11
2023-02-16T07:11:39.156Z,1012.15
2023-02-16T07:12:38.156Z,1012.14
2023-02-16T07:13:38.141Z,1012.17
2023-02-16T07:14:38.129Z,1012.15
2023-02-16T07:15:38.110Z,1012.15
2023-02-16T07:16:38.247Z,1012.18
2023-02-16T07:17:38.074Z,1012.19
2023-02-16T07:18:38.088Z,1012.14
2023-02-16T07:19:38.040Z,1012.18
2023-02-16T07:20:38.061Z,1012.17
2023-02-16T07:21:38.027Z,1012.21
2023-02-16T07:22:38.019Z,1012.19
2023-02-16T07:23:38.025Z,1012.23
2023-02-16T07:24:37.988Z,1012.22
2023-02-16T07:25:37.957Z,1012.26
2023-02-16T07:26:37.967Z,1012.25
2023-02-16T07:27:37.945Z,1012.22
2023-02-16T07:28:37.957Z,1012.21
2023-02-16T07:29:37.937Z,1012.24
2023-02-16T07:30:37.950Z,1012.25
2023-02-16T07:31:38.008Z,1012.25
2023-02-16T07:32:37.876Z,1012.25
2023-02-16T07:33:37.875Z,1012.27
2023-02-16T07:34:37.885Z,1012.23
2023-02-16T07:35:37.845Z,1012.20
2023-02-16T07:36:37.846Z,1012.18
2023-02-16T07:37:37.815Z,1012.19
2023-02-16T07:38:37.813Z,1012.16
2023-02-16T07:39:37.814Z,1012.20
2023-02-16T07:40:37.785Z,1012.18
2023-02-16T07:41:37.796Z,1012.20
2023-02-16T07:42:37.753Z,1012.20
2023-02-16T07:43:37.749Z,1012.22
2023-02-16T07:44:37.753Z,1012.18
2023-02-16T07:45:37.799Z,1012.25
2023-02-16T07:46:37.704Z,1012.23
2023-02-16T07:47:37.697Z,1012.26
2023-02-16T07:48:37.711Z,1012.35
2023-02-16T07:49:37.684Z,1012.33
2023-02-16T07:50:37.652Z,1012.29
2023-02-16T07:51:37.647Z,1012.26
2023-02-16T07:52:37.635Z,1012.25
2023-02-16T07:53:37.612Z,1012.26
2023-02-16T07:54:37.622Z,1012.28
2023-02-16T07:55:37.602Z,1012.28
2023-02-16T07:56:37.573Z,1012.29
2023-02-16T07:57:37.562Z,1012.35
2023-02-16T07:58:37.551Z,1012.40
2023-02-16T07:59:37.565Z,1012.38
2023-02-16T08:00:37.529Z,1012.38
2023-02-16T08:01:37.531Z,1012.39
2023-02-16T08:02:37.617Z,1012.43
2023-02-16T08:03:37.480Z,1012.45
2023-02-16T08:04:37.487Z,1012.45
2023-02-16T08:05:37.514Z,1012.47
2023-02-16T08:06:37.443Z,1012.49
2023-02-16T08:07:37.440Z,1012.45
2023-02-16T08:08:37.448Z,1012.47
2023-02-16T08:09:37.454Z,1012.50
2023-02-16T08:10:37.410Z,1012.45
2023-02-16T08:11:37.381Z,1012.45
2023-02-16T08:12:37.384Z,1012.44
2023-02-16T08:13:37.355Z,1012.43
2023-02-16T08:14:37.443Z,1012.42
2023-02-16T08:15:37.355Z,1012.41
2023-02-16T08:16:37.352Z,1012.41
2023-02-16T08:17:37.322Z,1012.40
2023-02-16T08:18:37.295Z,1012.39
2023-02-16T08:19:37.313Z,1012.42
2023-02-16T08:21:01.132Z,1012.41
2023-02-16T08:21:38.282Z,1012.46
2023-02-16T08:22:37.249Z,1012.49
2023-02-16T08:23:37.247Z,1012.49
2023-02-16T08:24:37.227Z,1012.55
2023-02-16T08:25:37.217Z,1012.58
2023-02-16T08:26:37.261Z,1012.62
2023-02-16T08:27:37.188Z,1012.66
2023-02-16T08:28:37.181Z,1012.65
2023-02-16T08:29:37.186Z,1012.70
2023-02-16T08:30:37.193Z,1012.67
2023-02-16T08:31:37.201Z,1012.68
2023-02-16T08:32:37.123Z,1012.67
2023-02-16T08:33:37.106Z,1012.69
2023-02-16T08:34:37.121Z,1012.68
2023-02-16T08:35:37.077Z,1012.68
2023-02-16T08:36:37.068Z,1012.67
2023-02-16T08:37:37.044Z,1012.70
2023-02-16T08:38:37.030Z,1012.65
2023-02-16T08:39:37.052Z,1012.64
2023-02-16T08:40:37.016Z,1012.66
2023-02-16T08:41:37.017Z,1012.71
2023-02-16T08:42:37.001Z,1012.75
2023-02-16T08:43:36.978Z,1012.70
2023-02-16T08:44:37.062Z,1012.66
2023-02-16T08:45:36.976Z,1012.67
2023-02-16T08:46:36.944Z,1012.65
2023-02-16T08:47:36.929Z,1012.65
2023-02-16T08:48:36.903Z,1012.65
2023-02-16T08:49:36.915Z,1012.65
2023-02-16T08:50:36.886Z,1012.64
2023-02-16T08:51:36.884Z,1012.61
2023-02-16T08:52:36.851Z,1012.62
2023-02-16T08:53:36.849Z,1012.56
2023-02-16T08:54:36.840Z,1012.61
2023-02-16T08:55:36.820Z,1012.57
2023-02-16T08:56:36.815Z,1012.55
2023-02-16T08:57:36.807Z,1012.55
2023-02-16T08:58:36.782Z,1012.58
2023-02-16T08:59:36.789Z,1012.60
2023-02-16T09:00:36.751Z,1012.61
2023-02-16T09:01:36.841Z,1012.61
2023-02-16T09:02:36.759Z,1012.62
2023-02-16T09:03:36.725Z,1012.60
2023-02-16T09:04:36.762Z,1012.58
2023-02-16T09:05:36.717Z,1012.56
2023-02-16T09:06:36.667Z,1012.59
2023-02-16T09:07:36.664Z,1012.58
2023-02-16T09:08:36.658Z,1012.64
2023-02-16T09:09:36.648Z,1012.60
2023-02-16T09:10:36.637Z,1012.59
2023-02-16T09:11:36.622Z,1012.55
2023-02-16T09:12:36.617Z,1012.58
2023-02-16T09:13:36.609Z,1012.56
2023-02-16T09:14:36.575Z,1012.55
2023-02-16T09:15:38.404Z,1012.54
2023-02-16T09:16:36.633Z,1012.54
2023-02-16T09:17:36.536Z,1012.49
2023-02-16T09:18:36.526Z,1012.46
2023-02-16T09:19:36.506Z,1012.43
2023-02-16T09:20:36.515Z,1012.43
2023-02-16T09:21:36.678Z,1012.48
2023-02-16T09:22:36.461Z,1012.39
2023-02-16T09:23:36.468Z,1012.36
2023-02-16T09:24:36.454Z,1012.35
2023-02-16T09:25:36.447Z,1012.34
2023-02-16T09:26:36.426Z,1012.34
2023-02-16T09:27:36.404Z,1012.38
2023-02-16T09:28:36.387Z,1012.37
2023-02-16T09:29:36.379Z,1012.42
2023-02-16T09:30:36.485Z,1012.43
2023-02-16T09:31:36.470Z,1012.42
2023-02-16T09:32:36.361Z,1012.43
2023-02-16T09:33:36.324Z,1012.42
2023-02-16T09:34:36.314Z,1012.37
2023-02-16T09:35:36.325Z,1012.43
2023-02-16T09:36:36.288Z,1012.39
2023-02-16T09:37:36.275Z,1012.37
2023-02-16T09:38:36.243Z,1012.41
2023-02-16T09:39:36.285Z,1012.41
2023-02-16T09:40:36.233Z,1012.43
2023-02-16T09:41:36.226Z,1012.42
2023-02-16T09:42:36.197Z,1012.39
2023-02-16T09:43:36.183Z,1012.41
2023-02-16T09:44:36.163Z,1012.43
2023-02-16T09:45:36.222Z,1012.45
2023-02-16T09:46:36.218Z,1012.50
2023-02-16T09:47:36.153Z,1012.50
2023-02-16T09:48:36.131Z,1012.47
2023-02-16T09:49:36.124Z,1012.48
2023-02-16T09:50:53.290Z,1012.48
2023-02-16T09:51:37.083Z,1012.48
2023-02-16T09:52:36.070Z,1012.43
2023-02-16T09:53:36.052Z,1012.39
2023-02-16T09:54:36.054Z,1012.39
2023-02-16T09:55:36.063Z,1012.32
2023-02-16T09:56:36.034Z,1012.30
2023-02-16T09:57:36.024Z,1012.33
2023-02-16T09:58:36.013Z,1012.29
2023-02-16T09:59:43.202Z,1012.32
2023-02-16T10:00:36.007Z,1012.35
2023-02-16T10:01:36.064Z,1012.37
2023-02-16T10:02:35.955Z,1012.37
2023-02-16T10:03:35.937Z,1012.39
2023-02-16T10:04:35.924Z,1012.39
2023-02-16T10:05:35.940Z,1012.44
2023-02-16T10:06:35.893Z,1012.42
2023-02-16T10:07:35.893Z,1012.42
2023-02-16T10:08:35.874Z,1012.38
2023-02-16T10:09:35.858Z,1012.38
2023-02-16T10:10:35.878Z,1012.34
2023-02-16T10:11:35.849Z,1012.32
2023-02-16T10:12:35.812Z,1012.27
2023-02-16T10:13:35.803Z,1012.27
2023-02-16T10:14:35.814Z,1012.29
2023-02-16T10:15:35.862Z,1012.31
2023-02-16T10:16:35.768Z,1012.29
2023-02-16T10:17:35.764Z,1012.32
2023-02-16T10:18:35.739Z,1012.33
2023-02-16T10:19:35.733Z,1012.37
2023-02-16T10:20:35.732Z,1012.35
2023-02-16T10:21:35.702Z,1012.35
2023-02-16T10:22:35.687Z,1012.35
2023-02-16T10:23:35.704Z,1012.33
2023-02-16T10:24:35.707Z,1012.32
2023-02-16T10:25:35.766Z,1012.36
2023-02-16T10:26:35.623Z,1012.36
2023-02-16T10:27:35.623Z,1012.36
2023-02-16T10:28:35.613Z,1012.27
2023-02-16T10:29:35.623Z,1012.26
2023-02-16T10:30:35.588Z,1012.24
2023-02-16T10:31:35.699Z,1012.24
2023-02-16T10:32:42.144Z,1012.23
2023-02-16T10:33:36.549Z,1012.16
2023-02-16T10:34:35.537Z,1012.16
2023-02-16T10:35:35.536Z,1012.16
2023-02-16T10:36:35.532Z,1012.16
2023-02-16T10:37:35.495Z,1012.17
2023-02-16T10:38:35.516Z,1012.16
2023-02-16T10:39:35.467Z,1012.20
2023-02-16T10:40:35.463Z,1012.19
2023-02-16T10:41:35.476Z,1012.20
2023-02-16T10:42:35.436Z,1012.23
2023-02-16T10:43:35.426Z,1012.21
2023-02-16T10:44:35.411Z,1012.18
2023-02-16T10:45:35.406Z,1012.14
2023-02-16T10:46:35.443Z,1012.17
2023-02-16T10:47:35.377Z,1012.18
2023-02-16T10:48:35.360Z,1012.20
2023-02-16T10:49:35.356Z,1012.19
2023-02-16T10:50:35.328Z,1012.17
2023-02-16T10:51:35.349Z,1012.11
2023-02-16T10:52:35.327Z,1012.14
2023-02-16T10:53:35.323Z,1012.15
2023-02-16T10:54:35.310Z,1012.18
2023-02-16T10:55:35.270Z,1012.16
2023-02-16T10:56:35.277Z,1012.15
2023-02-16T10:57:35.270Z,1012.18
2023-02-16T10:58:35.240Z,1012.21
2023-02-16T10:59:35.210Z,1012.17
2023-02-16T11:00:35.216Z,1012.14
2023-02-16T11:01:35.196Z,1012.17
2023-02-16T11:02:35.196Z,1012.13
2023-02-16T11:03:35.192Z,1012.09
2023-02-16T11:04:35.198Z,1012.11
2023-02-16T11:05:35.159Z,1012.09
2023-02-16T11:06:36.624Z,1012.09
2023-02-16T11:07:35.130Z,1012.09
2023-02-16T11:08:35.081Z,1012.07
2023-02-16T11:09:35.090Z,1012.06
2023-02-16T11:10:35.081Z,1012.08
2023-02-16T11:11:35.068Z,1012.06
2023-02-16T11:12:35.068Z,1012.08
2023-02-16T11:13:35.049Z,1012.05
2023-02-16T11:14:35.020Z,1012.08
2023-02-16T11:15:35.010Z,1012.06
2023-02-16T11:16:34.993Z,1012.07
2023-02-16T11:17:35.094Z,1012.03
2023-02-16T11:18:34.966Z,1012.01
2023-02-16T11:19:34.960Z,1012.01
2023-02-16T11:20:34.948Z,1012.00
2023-02-16T11:21:34.961Z,1011.97
2023-02-16T11:22:34.936Z,1011.91
2023-02-16T11:23:34.938Z,1011.92
2023-02-16T11:24:34.901Z,1011.86
2023-02-16T11:25:34.882Z,1011.87
2023-02-16T11:26:34.885Z,1011.85
2023-02-16T11:27:34.860Z,1011.85
2023-02-16T11:28:34.852Z,1011.85
2023-02-16T11:29:34.832Z,1011.86
2023-02-16T11:30:34.828Z,1011.85
2023-02-16T11:31:34.931Z,1011.86
2023-02-16T11:32:34.785Z,1011.82
2023-02-16T11:33:34.827Z,1011.86
2023-02-16T11:34:34.786Z,1011.80
2023-02-16T11:35:34.749Z,1011.78
2023-02-16T11:36:34.761Z,1011.76
2023-02-16T11:37:34.754Z,1011.76
2023-02-16T11:38:34.758Z,1011.76
2023-02-16T11:39:34.696Z,1011.75
2023-02-16T11:40:34.694Z,1011.76
2023-02-16T11:41:34.692Z,1011.73
2023-02-16T11:42:34.668Z,1011.74
2023-02-16T11:43:34.666Z,1011.70
2023-02-16T11:44:34.632Z,1011.67
2023-02-16T11:45:34.631Z,1011.67
2023-02-16T11:46:34.662Z,1011.67
2023-02-16T11:47:34.596Z,1011.69
2023-02-16T11:48:34.605Z,1011.65
2023-02-16T11:49:34.574Z,1011.65
2023-02-16T11:50:34.541Z,1011.66
2023-02-16T11:51:34.542Z,1011.64
2023-02-16T11:52:34.552Z,1011.64
2023-02-16T11:53:34.529Z,1011.63
2023-02-16T11:54:34.486Z,1011.61
2023-02-16T11:55:34.504Z,1011.58
2023-02-16T11:56:34.488Z,1011.53
2023-02-16T11:57:34.452Z,1011.53
2023-02-16T11:58:34.479Z,1011.53
2023-02-16T11:59:34.431Z,1011.51
2023-02-16T12:00:34.411Z,1011.51
2023-02-16T12:01:34.540Z,1011.48
2023-02-16T12:02:34.514Z,1011.49
2023-02-16T12:03:34.420Z,1011.47
2023-02-16T12:04:34.360Z,1011.47
2023-02-16T12:05:34.488Z,1011.40
2023-02-16T12:06:34.328Z,1011.40
2023-02-16T12:07:34.310Z,1011.41